»·PEaware :: N593FL KBUR-KLAS

N593FL :: KBUR-KLAS

FLIGHT INFORMATION

Flight Status: Arrived
Operator: Privately registered:
United States
More flights under this callsign
Pilot: Glenn W. (23047)
Aircraft: PIPER PA-28 CHEROKEE ARCHER
(P28A)
More flights by this aircraft type
Origin: KBUR Bob Hope-Burbank
United States
Destination: KLAS McCarran Intl
United States
More flights between these airports :: More routes between these airports
Route: +VNY3 DAG CRESO4
File this flight plan on PilotEdge
Remarks: I-5 Rating
Altitude:
(Current/Filed)
11,000ft
Speed:
(Current/Filed)
140kts
Departed: 02-Feb-19 01:43 PM
Arrived: 02-Feb-19 02:52 PM
Distance/Time
Traveled:
193nm/1:09
Distance/Time
To Go:
Arrived

Flight Plot

Page will automatically refresh every two minutes.

Flight plan parsing failed; only flown route is shown


Map Options




Map Legend


Flown Route
Filed Route
Departure Airport
Arrival Airport
Navaid (VOR, NDB)
Fix

Horizontal Profiles

Position Reports

Time Latitude Longitude Heading Altitude Ground
Speed
02-Feb-19 13:19 34.200203 -118.358746 263 719ft 0kts
02-Feb-19 13:20 34.200203 -118.358746 263 719ft 0kts
02-Feb-19 13:21 34.200203 -118.358746 263 719ft 0kts
02-Feb-19 13:22 34.200203 -118.358746 263 719ft 0kts
02-Feb-19 13:23 34.200203 -118.358746 263 719ft 0kts
02-Feb-19 13:24 34.200203 -118.358746 263 719ft 0kts
02-Feb-19 13:25 34.200203 -118.358746 263 719ft 0kts
02-Feb-19 13:26 34.200203 -118.358746 263 719ft 0kts
02-Feb-19 13:27 34.200203 -118.358746 263 719ft 0kts
02-Feb-19 13:28 34.200203 -118.358746 263 719ft 0kts
02-Feb-19 13:29 34.200203 -118.358746 263 719ft 0kts
02-Feb-19 13:30 34.200203 -118.358746 263 719ft 0kts
02-Feb-19 13:31 34.200203 -118.358746 263 719ft 0kts
02-Feb-19 13:32 34.200203 -118.358746 263 719ft 0kts
02-Feb-19 13:33 34.200211 -118.358893 301 719ft 3kts
02-Feb-19 13:34 34.202793 -118.359336 76 730ft 5kts
02-Feb-19 13:35 34.205746 -118.359780 347 739ft 13kts
02-Feb-19 13:36 34.209334 -118.360795 352 756ft 10kts
02-Feb-19 13:37 34.209598 -118.360694 53 758ft 0kts
02-Feb-19 13:38 34.209598 -118.360694 53 758ft 0kts
02-Feb-19 13:39 34.209598 -118.360694 53 758ft 0kts
02-Feb-19 13:40 34.209598 -118.360694 53 758ft 0kts
02-Feb-19 13:41 34.209271 -118.359614 166 755ft 22kts
02-Feb-19 13:42 34.187433 -118.354038 195 1491ft 89kts
02-Feb-19 13:43 34.172651 -118.374948 226 2453ft 79kts
02-Feb-19 13:44 34.160058 -118.400489 224 3059ft 97kts
02-Feb-19 13:45 34.146167 -118.429730 226 3623ft 101kts
02-Feb-19 13:46 34.131322 -118.460778 224 3828ft 115kts
02-Feb-19 13:47 34.111673 -118.492029 221 3739ft 117kts
02-Feb-19 13:48 34.090196 -118.522804 219 3791ft 124kts
02-Feb-19 13:49 34.075994 -118.561099 295 3910ft 155kts
02-Feb-19 13:50 34.114201 -118.576669 354 4557ft 143kts
02-Feb-19 13:51 34.154066 -118.582358 355 5222ft 148kts
02-Feb-19 13:52 34.195851 -118.586915 354 5885ft 153kts
02-Feb-19 13:53 34.237566 -118.590945 354 6689ft 145kts
02-Feb-19 13:54 34.272736 -118.593261 356 7522ft 109kts
02-Feb-19 13:55 34.302577 -118.589476 41 7800ft 105kts
02-Feb-19 13:56 34.321339 -118.597856 228 8205ft 53kts
02-Feb-19 13:57 34.320772 -118.582790 72 8347ft 108kts
02-Feb-19 13:58 34.342837 -118.557207 62 8427ft 108kts
02-Feb-19 14:00 34.362848 -118.532013 67 8423ft 104kts
02-Feb-19 14:01 34.380597 -118.506668 84 8276ft 102kts
02-Feb-19 14:02 34.393584 -118.477345 99 8136ft 84kts
02-Feb-19 14:03 34.404713 -118.441469 87 7506ft 104kts
02-Feb-19 14:04 34.428053 -118.389187 34 6145ft 97kts
02-Feb-19 14:05 34.443336 -118.341857 88 5984ft 84kts
02-Feb-19 14:06 34.460387 -118.278740 65 6774ft 109kts
02-Feb-19 14:07 34.495830 -118.219009 45 7910ft 110kts
02-Feb-19 14:08 34.538425 -118.167043 45 9038ft 107kts
02-Feb-19 14:09 34.579691 -118.116735 45 10164ft 102kts
02-Feb-19 14:10 34.622518 -118.073382 38 11285ft 97kts
02-Feb-19 14:11 34.642107 -118.005603 89 11374ft 124kts
02-Feb-19 14:12 34.649115 -117.878648 84 11422ft 132kts
02-Feb-19 14:13 34.662080 -117.746324 73 11360ft 135kts
02-Feb-19 14:14 34.686798 -117.645257 71 11294ft 135kts
02-Feb-19 14:15 34.733235 -117.471320 71 11307ft 134kts
02-Feb-19 14:16 34.779666 -117.297683 71 11341ft 134kts
02-Feb-19 14:16 34.818424 -117.152914 71 11352ft 134kts
02-Feb-19 14:18 34.921333 -116.769037 71 11278ft 134kts
02-Feb-19 14:19 34.951741 -116.649292 74 11215ft 135kts
02-Feb-19 14:19 34.967166 -116.575291 75 11242ft 134kts
02-Feb-19 14:20 34.998789 -116.493231 59 11276ft 134kts
02-Feb-19 14:22 35.080760 -116.327846 58 11318ft 134kts
02-Feb-19 14:23 35.158794 -116.170158 59 11350ft 134kts
02-Feb-19 14:23 35.218135 -116.034548 62 11297ft 135kts
02-Feb-19 14:24 35.285703 -115.868953 65 11231ft 135kts
02-Feb-19 14:25 35.333525 -115.749353 46 11162ft 135kts
02-Feb-19 14:26 35.392537 -115.672501 46 10930ft 138kts
02-Feb-19 14:27 35.467827 -115.574518 46 10561ft 140kts
02-Feb-19 14:28 35.523857 -115.501592 46 10325ft 137kts
02-Feb-19 14:29 35.628901 -115.364741 46 10257ft 136kts
02-Feb-19 14:30 35.681083 -115.296702 46 10275ft 135kts
02-Feb-19 14:31 35.732900 -115.229104 46 10310ft 135kts
02-Feb-19 14:32 35.784544 -115.161698 46 10326ft 136kts
02-Feb-19 14:33 35.836820 -115.093438 46 10261ft 136kts
02-Feb-19 14:34 35.889002 -115.025268 46 10221ft 136kts
02-Feb-19 14:35 35.940746 -114.957046 49 10254ft 135kts
02-Feb-19 14:36 35.989724 -114.885935 49 10289ft 135kts
02-Feb-19 14:37 36.020488 -114.841239 49 10324ft 135kts
02-Feb-19 14:38 36.044131 -114.806929 49 10333ft 111kts
02-Feb-19 14:39 36.060471 -114.783402 49 10217ft 72kts
02-Feb-19 14:40 36.076869 -114.760834 9 10268ft 112kts
02-Feb-19 14:41 36.094877 -114.795830 282 9290ft 145kts
02-Feb-19 14:42 36.103645 -114.845600 280 8293ft 148kts
02-Feb-19 14:43 36.110613 -114.895848 279 7308ft 147kts
02-Feb-19 14:44 36.116134 -114.939871 275 7257ft 118kts
02-Feb-19 14:45 36.117429 -114.979756 272 7260ft 113kts
02-Feb-19 14:46 36.118864 -115.018757 272 7249ft 114kts
02-Feb-19 14:47 36.120640 -115.067459 272 5763ft 146kts
02-Feb-19 14:48 36.123537 -115.113751 279 4484ft 115kts
02-Feb-19 14:49 36.122821 -115.147176 207 3740ft 106kts
02-Feb-19 14:50 36.092422 -115.160596 206 2131ft 90kts
02-Feb-19 14:51 36.082868 -115.167479 196 2155ft 11kts
02-Feb-19 14:52 36.078852 -115.169838 209 2171ft 0kts
02-Feb-19 14:53 36.079787 -115.170234 25 2168ft 15kts
02-Feb-19 14:54 36.081305 -115.171500 275 2168ft 8kts
02-Feb-19 14:55 36.081473 -115.172088 309 2169ft 0kts

Navigation Log

Ident Type
Flight plan parsing failed, navigation log unavailable